createdAt,value
2019-04-16T00:00:30.569Z,6.90
2019-04-16T00:02:58.327Z,6.90
2019-04-16T00:05:43.620Z,6.80
2019-04-16T00:08:33.777Z,6.80
2019-04-16T00:11:37.515Z,6.90
2019-04-16T00:14:21.230Z,6.80
2019-04-16T00:16:48.986Z,6.90
2019-04-16T00:19:16.722Z,6.90
2019-04-16T00:22:33.301Z,6.90
2019-04-16T00:25:01.088Z,6.90
2019-04-16T00:27:29.454Z,6.80
2019-04-16T00:29:57.558Z,6.70
2019-04-16T00:32:28.207Z,6.60
2019-04-16T00:34:56.017Z,6.50
2019-04-16T00:37:23.762Z,6.40
2019-04-16T00:39:55.622Z,6.30
2019-04-16T00:42:21.326Z,6.20
2019-04-16T00:44:49.074Z,6.20
2019-04-16T00:47:16.818Z,6.20
2019-04-16T00:49:44.627Z,6.20
2019-04-16T00:52:22.563Z,6.10
2019-04-16T00:54:50.372Z,6.10
2019-04-16T00:57:18.745Z,6.00
2019-04-16T00:59:46.752Z,6.00
2019-04-16T01:02:14.487Z,5.90
2019-04-16T01:04:42.292Z,5.80
2019-04-16T01:07:10.077Z,5.90
2019-04-16T01:09:37.839Z,5.90
2019-04-16T01:12:05.632Z,5.90
2019-04-16T01:14:33.372Z,6.40
2019-04-16T01:17:03.838Z,6.00
2019-04-16T01:19:30.820Z,6.00
2019-04-16T01:21:58.762Z,6.00
2019-04-16T01:24:26.527Z,6.00
2019-04-16T01:26:55.478Z,5.90
2019-04-16T01:29:23.991Z,5.90
2019-04-16T01:32:18.885Z,5.80
2019-04-16T01:35:04.119Z,5.80
2019-04-16T01:37:51.506Z,5.70
2019-04-16T01:40:24.589Z,5.60
2019-04-16T01:42:54.705Z,5.50
2019-04-16T01:45:22.383Z,5.50
2019-04-16T01:47:50.220Z,5.40
2019-04-16T01:50:17.967Z,5.40
2019-04-16T01:52:49.453Z,6.00
2019-04-16T01:55:15.419Z,5.30
2019-04-16T01:57:43.238Z,5.30
2019-04-16T02:00:11.923Z,5.20
2019-04-16T02:02:39.722Z,5.20
2019-04-16T02:05:07.541Z,5.20
2019-04-16T02:07:35.308Z,5.20
2019-04-16T02:10:05.964Z,5.20
2019-04-16T02:12:37.988Z,5.10
2019-04-16T02:15:06.485Z,5.10
2019-04-16T02:17:34.295Z,5.00
2019-04-16T02:20:05.542Z,5.00
2019-04-16T02:22:31.877Z,5.00
2019-04-16T02:24:59.661Z,4.90
2019-04-16T02:27:27.446Z,4.90
2019-04-16T02:29:55.219Z,4.80
2019-04-16T02:32:23.058Z,4.80
2019-04-16T02:34:50.870Z,4.80
2019-04-16T02:37:18.620Z,4.70
2019-04-16T02:39:48.293Z,4.70
2019-04-16T02:42:16.361Z,4.70
2019-04-16T02:44:48.890Z,4.60
2019-04-16T02:47:13.819Z,5.30
2019-04-16T02:49:43.624Z,4.60
2019-04-16T02:52:51.014Z,4.90
2019-04-16T02:55:43.918Z,4.60
2019-04-16T02:58:12.438Z,4.60
2019-04-16T03:01:00.007Z,4.60
2019-04-16T03:03:41.857Z,4.50
2019-04-16T03:06:09.831Z,4.50
2019-04-16T03:08:37.639Z,4.80
2019-04-16T03:11:05.598Z,4.50
2019-04-16T03:13:33.375Z,4.50
2019-04-16T03:16:24.710Z,5.20
2019-04-16T03:18:57.303Z,4.40
2019-04-16T03:21:30.165Z,4.40
2019-04-16T03:23:57.936Z,4.40
2019-04-16T03:26:25.791Z,4.40
2019-04-16T03:28:55.721Z,4.30
2019-04-16T03:31:23.960Z,4.30
2019-04-16T03:33:51.834Z,4.20
2019-04-16T03:36:19.531Z,4.20
2019-04-16T03:38:47.375Z,4.50
2019-04-16T03:41:15.294Z,4.10
2019-04-16T03:43:43.036Z,4.10
2019-04-16T03:46:12.778Z,4.10
2019-04-16T03:48:40.512Z,4.10
2019-04-16T03:51:08.569Z,4.10
2019-04-16T03:53:36.372Z,4.10
2019-04-16T03:56:04.185Z,4.10
2019-04-16T03:58:31.956Z,4.10
2019-04-16T04:00:59.920Z,4.00
2019-04-16T04:03:27.681Z,4.00
2019-04-16T04:05:55.941Z,4.00
2019-04-16T04:08:24.117Z,4.30
2019-04-16T04:10:57.107Z,4.00
2019-04-16T04:13:24.892Z,3.90
2019-04-16T04:15:55.034Z,4.00
2019-04-16T04:18:22.727Z,3.90
2019-04-16T04:20:50.979Z,4.00
2019-04-16T04:23:18.834Z,4.30
2019-04-16T04:25:46.820Z,3.90
2019-04-16T04:28:18.546Z,4.20
2019-04-16T04:30:44.427Z,3.90
2019-04-16T04:33:32.036Z,3.90
2019-04-16T04:35:59.829Z,4.30
2019-04-16T04:38:27.594Z,3.80
2019-04-16T04:40:55.463Z,4.20
2019-04-16T04:43:23.203Z,3.80
2019-04-16T04:45:51.040Z,3.80
2019-04-16T04:48:23.198Z,3.80
2019-04-16T04:50:48.649Z,3.90
2019-04-16T04:53:19.178Z,3.90
2019-04-16T04:55:46.095Z,3.90
2019-04-16T04:58:13.846Z,3.90
2019-04-16T05:00:41.890Z,4.60
2019-04-16T05:03:15.184Z,3.90
2019-04-16T05:05:46.514Z,4.00
2019-04-16T05:08:14.296Z,4.50
2019-04-16T05:10:43.257Z,4.10
2019-04-16T05:13:11.794Z,4.60
2019-04-16T05:15:39.573Z,4.40
2019-04-16T05:18:09.934Z,4.80
2019-04-16T05:20:37.063Z,5.50
2019-04-16T05:23:04.967Z,6.80
2019-04-16T05:25:34.179Z,7.90
2019-04-16T05:28:02.206Z,8.70
2019-04-16T05:30:30.018Z,9.40
2019-04-16T05:32:58.912Z,9.90
2019-04-16T05:35:26.642Z,10.40
2019-04-16T05:37:54.423Z,10.80
2019-04-16T05:40:22.217Z,11.10
2019-04-16T05:42:52.545Z,11.40
2019-04-16T05:45:19.633Z,11.70
2019-04-16T05:47:49.056Z,11.80
2019-04-16T05:50:17.067Z,12.20
2019-04-16T05:52:44.922Z,12.70
2019-04-16T05:55:41.155Z,13.00
2019-04-16T05:58:08.966Z,13.30
2019-04-16T06:00:44.892Z,13.80
2019-04-16T06:03:12.750Z,14.40
2019-04-16T06:05:40.488Z,14.80
2019-04-16T06:08:10.321Z,14.70
2019-04-16T06:10:38.654Z,15.10
2019-04-16T06:13:32.213Z,15.70
2019-04-16T06:16:25.181Z,16.10
2019-04-16T06:19:01.508Z,16.60
2019-04-16T06:21:56.688Z,17.10
2019-04-16T06:24:42.829Z,17.20
2019-04-16T06:27:33.090Z,16.90
2019-04-16T06:30:32.981Z,17.60
2019-04-16T06:33:04.549Z,17.20
2019-04-16T06:35:43.339Z,18.40
2019-04-16T06:38:18.305Z,18.90
2019-04-16T06:41:09.150Z,18.70
2019-04-16T06:43:40.358Z,18.90
2019-04-16T06:46:26.345Z,18.70
2019-04-16T06:49:22.913Z,19.60
2019-04-16T06:52:04.606Z,19.80
2019-04-16T06:54:50.588Z,20.40
2019-04-16T06:57:40.345Z,20.20
2019-04-16T07:00:21.629Z,20.40
2019-04-16T07:03:15.051Z,20.50
2019-04-16T07:06:11.149Z,21.10
2019-04-16T07:08:58.532Z,21.80
2019-04-16T07:11:26.384Z,21.70
2019-04-16T07:13:54.175Z,21.50
2019-04-16T07:16:21.970Z,22.10
2019-04-16T07:18:49.724Z,22.10
2019-04-16T07:21:18.332Z,22.20
2019-04-16T07:23:47.078Z,21.60
2019-04-16T07:26:15.566Z,22.10
2019-04-16T07:28:50.100Z,22.40
2019-04-16T07:31:34.508Z,22.50
2019-04-16T07:34:22.658Z,22.20
2019-04-16T07:37:07.914Z,22.70
2019-04-16T07:39:58.498Z,22.50
2019-04-16T07:42:51.018Z,22.40
2019-04-16T07:45:15.411Z,23.40
2019-04-16T07:48:06.975Z,23.90
2019-04-16T07:50:57.644Z,23.90
2019-04-16T07:54:02.286Z,23.90
2019-04-16T07:56:29.905Z,24.30
2019-04-16T07:59:01.277Z,25.00
2019-04-16T08:01:27.613Z,24.70
2019-04-16T08:03:56.794Z,25.20
2019-04-16T08:06:25.079Z,24.90
2019-04-16T08:08:53.864Z,25.70
2019-04-16T08:11:23.144Z,25.30
2019-04-16T08:13:51.166Z,26.20
2019-04-16T08:16:19.118Z,25.30
2019-04-16T08:18:48.830Z,26.00
2019-04-16T08:21:16.646Z,26.30
2019-04-16T08:23:51.453Z,25.50
2019-04-16T08:26:17.772Z,26.30
2019-04-16T08:28:45.571Z,26.90
2019-04-16T08:31:17.365Z,26.70
2019-04-16T08:33:45.191Z,26.60
2019-04-16T08:36:12.934Z,27.90
2019-04-16T08:38:40.782Z,28.00
2019-04-16T08:41:08.577Z,28.10
2019-04-16T08:43:39.751Z,28.30
2019-04-16T08:46:11.023Z,28.20
2019-04-16T08:48:37.314Z,28.60
2019-04-16T08:51:05.401Z,28.50
2019-04-16T08:53:35.595Z,28.80
2019-04-16T08:56:03.242Z,28.80
2019-04-16T08:58:31.036Z,28.70
2019-04-16T09:00:58.928Z,28.30
2019-04-16T09:03:29.881Z,28.20
2019-04-16T09:05:56.408Z,28.70
2019-04-16T09:08:46.387Z,29.30
2019-04-16T09:11:23.097Z,28.60
2019-04-16T09:13:48.369Z,28.70
2019-04-16T09:16:16.892Z,28.60
2019-04-16T09:18:52.759Z,28.50
2019-04-16T09:21:21.016Z,28.40
2019-04-16T09:24:09.432Z,29.00
2019-04-16T09:26:52.723Z,29.40
2019-04-16T09:29:59.232Z,27.30
2019-04-16T09:32:36.547Z,28.10
2019-04-16T09:35:20.055Z,28.50
2019-04-16T09:38:13.016Z,28.10
2019-04-16T09:40:59.399Z,28.20
2019-04-16T09:43:27.901Z,27.80
2019-04-16T09:46:09.348Z,27.80
2019-04-16T09:48:25.415Z,28.00
2019-04-16T09:50:53.638Z,27.20
2019-04-16T09:53:32.598Z,28.10
2019-04-16T09:55:51.989Z,28.40
2019-04-16T09:58:22.610Z,28.90
2019-04-16T10:01:00.810Z,29.00
2019-04-16T10:03:34.640Z,28.50
2019-04-16T10:06:05.335Z,28.00
2019-04-16T10:08:32.739Z,27.90
2019-04-16T10:11:06.412Z,28.70
2019-04-16T10:13:36.240Z,28.60
2019-04-16T10:16:04.765Z,28.90
2019-04-16T10:18:35.126Z,28.70
2019-04-16T10:21:02.907Z,27.80
2019-04-16T10:23:49.257Z,28.40
2019-04-16T10:26:18.765Z,28.20
2019-04-16T10:28:47.314Z,28.10
2019-04-16T10:31:17.405Z,28.80
2019-04-16T10:33:45.581Z,28.60
2019-04-16T10:36:13.485Z,28.90
2019-04-16T10:38:54.772Z,29.00
2019-04-16T10:41:35.417Z,28.80
2019-04-16T10:44:12.603Z,29.20
2019-04-16T10:46:48.768Z,29.30
2019-04-16T10:49:22.686Z,28.70
2019-04-16T10:52:23.278Z,28.80
2019-04-16T10:54:59.501Z,28.70
2019-04-16T10:57:49.877Z,29.30
2019-04-16T11:00:33.810Z,29.20
2019-04-16T11:03:05.570Z,30.50
2019-04-16T11:06:04.922Z,29.50
2019-04-16T11:08:33.034Z,29.30
2019-04-16T11:11:01.038Z,29.00
2019-04-16T11:13:33.111Z,28.30
2019-04-16T11:16:06.701Z,28.30
2019-04-16T11:18:34.523Z,28.60
2019-04-16T11:21:03.213Z,28.70
2019-04-16T11:23:31.096Z,28.60
2019-04-16T11:25:59.045Z,29.30
2019-04-16T11:28:26.925Z,29.60
2019-04-16T11:30:56.867Z,30.00
2019-04-16T11:33:27.415Z,29.70
2019-04-16T11:35:54.442Z,30.30
2019-04-16T11:38:22.249Z,30.10
2019-04-16T11:40:50.159Z,30.20
2019-04-16T11:43:18.029Z,31.00
2019-04-16T11:45:46.044Z,29.70
2019-04-16T11:48:13.990Z,30.10
2019-04-16T11:50:41.923Z,30.20
2019-04-16T11:53:09.781Z,29.90
2019-04-16T11:55:38.051Z,30.20
2019-04-16T11:58:12.132Z,29.90
2019-04-16T12:00:50.502Z,30.00
2019-04-16T12:03:27.758Z,30.50
2019-04-16T12:06:28.090Z,30.90
2019-04-16T12:09:10.918Z,31.10
2019-04-16T12:11:42.161Z,30.60
2019-04-16T12:14:32.279Z,29.40
2019-04-16T12:17:04.767Z,29.50
2019-04-16T12:19:54.759Z,29.20
2019-04-16T12:22:41.300Z,29.80
2019-04-16T12:25:34.608Z,29.60
2019-04-16T12:28:25.020Z,29.40
2019-04-16T12:31:11.475Z,28.80
2019-04-16T12:34:02.277Z,29.20
2019-04-16T12:36:49.727Z,29.00
2019-04-16T12:39:46.413Z,28.50
2019-04-16T12:42:42.191Z,29.10
2019-04-16T12:45:29.481Z,29.00
2019-04-16T12:48:16.941Z,29.30
2019-04-16T12:51:04.883Z,28.80
2019-04-16T12:53:42.983Z,29.10
2019-04-16T12:56:31.922Z,29.40
2019-04-16T12:59:14.750Z,29.20
2019-04-16T13:02:04.799Z,28.80
2019-04-16T13:05:04.531Z,28.80
2019-04-16T13:08:09.996Z,28.40
2019-04-16T13:10:47.794Z,28.50
2019-04-16T13:13:33.914Z,28.70
2019-04-16T13:16:16.486Z,28.50
2019-04-16T13:18:59.266Z,28.50
2019-04-16T13:21:32.915Z,28.60
2019-04-16T13:24:29.381Z,28.80
2019-04-16T13:27:22.923Z,29.00
2019-04-16T13:29:50.750Z,29.50
2019-04-16T13:32:18.955Z,28.90
2019-04-16T13:34:46.798Z,28.10
2019-04-16T13:37:14.565Z,28.30
2019-04-16T13:40:17.040Z,28.20
2019-04-16T13:42:44.907Z,28.20
2019-04-16T13:45:28.587Z,28.50
2019-04-16T13:47:56.544Z,27.70
2019-04-16T13:50:41.014Z,28.10
2019-04-16T13:53:22.835Z,28.10
2019-04-16T13:56:25.055Z,28.30
2019-04-16T13:59:19.509Z,28.50
2019-04-16T14:02:18.624Z,28.50
2019-04-16T14:04:45.721Z,28.10
2019-04-16T14:07:13.557Z,28.10
2019-04-16T14:09:44.307Z,28.10
2019-04-16T14:12:11.072Z,27.90
2019-04-16T14:14:38.982Z,27.30
2019-04-16T14:17:10.973Z,27.30
2019-04-16T14:19:38.819Z,27.00
2019-04-16T14:22:06.843Z,27.20
2019-04-16T14:24:34.747Z,27.30
2019-04-16T14:27:03.047Z,27.60
2019-04-16T14:29:30.880Z,27.60
2019-04-16T14:31:58.916Z,27.30
2019-04-16T14:34:34.955Z,26.50
2019-04-16T14:37:02.717Z,27.10
2019-04-16T14:39:34.643Z,27.10
2019-04-16T14:42:02.634Z,27.00
2019-04-16T14:44:35.570Z,27.00
2019-04-16T14:47:03.502Z,26.70
2019-04-16T14:49:31.253Z,26.60
2019-04-16T14:52:02.036Z,26.40
2019-04-16T14:54:33.282Z,26.10
2019-04-16T14:57:01.304Z,25.80
2019-04-16T14:59:40.327Z,25.80
2019-04-16T15:02:31.887Z,25.90
2019-04-16T15:05:15.743Z,25.70
2019-04-16T15:08:02.937Z,25.30
2019-04-16T15:10:48.889Z,24.40
2019-04-16T15:13:35.065Z,24.90
2019-04-16T15:16:22.551Z,24.80
2019-04-16T15:19:10.022Z,24.40
2019-04-16T15:22:15.482Z,24.00
2019-04-16T15:25:01.487Z,24.00
2019-04-16T15:27:49.572Z,23.80
2019-04-16T15:30:35.615Z,23.90
2019-04-16T15:33:23.069Z,24.20
2019-04-16T15:36:19.502Z,24.20
2019-04-16T15:39:08.183Z,24.50
2019-04-16T15:41:53.911Z,24.40
2019-04-16T15:44:35.551Z,24.30
2019-04-16T15:47:22.957Z,24.00
2019-04-16T15:49:57.902Z,24.00
2019-04-16T15:52:48.004Z,23.90
2019-04-16T15:55:44.728Z,23.90
2019-04-16T15:58:36.037Z,23.80
2019-04-16T16:01:32.352Z,23.50
2019-04-16T16:04:11.875Z,23.10
2019-04-16T16:06:43.826Z,22.90
2019-04-16T16:09:37.528Z,22.90
2019-04-16T16:12:14.699Z,22.80
2019-04-16T16:14:42.497Z,22.40
2019-04-16T16:17:10.348Z,22.00
2019-04-16T16:19:39.099Z,21.80
2019-04-16T16:22:31.596Z,21.70
2019-04-16T16:24:59.385Z,21.50
2019-04-16T16:27:27.135Z,21.00
2019-04-16T16:29:55.023Z,21.00
2019-04-16T16:32:37.965Z,20.70
2019-04-16T16:35:06.079Z,20.50
2019-04-16T16:37:36.371Z,20.30
2019-04-16T16:40:04.827Z,20.10
2019-04-16T16:42:37.651Z,20.10
2019-04-16T16:45:05.729Z,20.00
2019-04-16T16:47:42.341Z,19.90
2019-04-16T16:50:15.632Z,19.70
2019-04-16T16:52:59.250Z,19.70
2019-04-16T16:55:32.062Z,19.60
2019-04-16T16:58:07.441Z,19.50
2019-04-16T17:01:04.214Z,19.40
2019-04-16T17:03:55.003Z,19.30
2019-04-16T17:06:23.197Z,19.20
2019-04-16T17:08:51.052Z,19.10
2019-04-16T17:11:18.895Z,19.00
2019-04-16T17:13:47.080Z,19.00
2019-04-16T17:16:14.969Z,18.90
2019-04-16T17:18:45.500Z,18.80
2019-04-16T17:21:13.116Z,18.60
2019-04-16T17:23:40.895Z,18.60
2019-04-16T17:26:08.696Z,18.50
2019-04-16T17:28:36.523Z,18.40
2019-04-16T17:31:04.825Z,18.30
2019-04-16T17:33:32.601Z,18.20
2019-04-16T17:36:00.664Z,18.10
2019-04-16T17:38:28.988Z,18.00
2019-04-16T17:41:00.222Z,17.90
2019-04-16T17:44:03.103Z,17.80
2019-04-16T17:46:50.065Z,17.70
2019-04-16T17:49:29.652Z,17.60
2019-04-16T17:52:17.494Z,17.50
2019-04-16T17:54:53.293Z,17.40
2019-04-16T17:57:44.724Z,17.30
2019-04-16T18:00:41.055Z,17.20
2019-04-16T18:03:49.191Z,17.10
2019-04-16T18:06:36.599Z,16.90
2019-04-16T18:09:21.102Z,16.80
2019-04-16T18:12:08.623Z,16.70
2019-04-16T18:14:54.664Z,16.60
2019-04-16T18:17:47.922Z,16.40
2019-04-16T18:20:22.297Z,16.20
2019-04-16T18:23:18.576Z,16.10
2019-04-16T18:26:05.999Z,15.90
2019-04-16T18:28:38.031Z,15.80
2019-04-16T18:31:12.055Z,15.70
2019-04-16T18:34:05.112Z,15.60
2019-04-16T18:36:36.342Z,15.40
2019-04-16T18:39:31.293Z,15.30
2019-04-16T18:42:11.247Z,15.20
2019-04-16T18:45:04.666Z,15.00
2019-04-16T18:48:02.769Z,14.90
2019-04-16T18:50:28.907Z,14.80
2019-04-16T18:52:56.740Z,14.70
2019-04-16T18:55:24.610Z,14.70
2019-04-16T18:57:55.463Z,14.70
2019-04-16T19:00:42.920Z,14.50
2019-04-16T19:03:14.650Z,14.40
2019-04-16T19:05:40.697Z,14.30
2019-04-16T19:08:09.507Z,14.20
2019-04-16T19:10:37.893Z,14.10
2019-04-16T19:13:10.031Z,14.00
2019-04-16T19:15:35.546Z,14.00
2019-04-16T19:18:18.458Z,13.90
2019-04-16T19:20:33.502Z,13.80
2019-04-16T19:23:01.359Z,13.80
2019-04-16T19:25:30.699Z,13.70
2019-04-16T19:28:05.003Z,13.60
2019-04-16T19:30:28.993Z,13.50
2019-04-16T19:33:00.125Z,13.50
2019-04-16T19:35:26.924Z,13.40
2019-04-16T19:37:54.743Z,13.40
2019-04-16T19:40:27.793Z,13.40
2019-04-16T19:42:57.839Z,13.30
2019-04-16T19:45:26.170Z,13.40
2019-04-16T19:48:00.309Z,13.20
2019-04-16T19:50:24.059Z,13.10
2019-04-16T19:52:51.913Z,13.10
2019-04-16T19:55:19.725Z,13.00
2019-04-16T19:57:47.582Z,12.90
2019-04-16T20:00:21.836Z,12.90
2019-04-16T20:02:45.482Z,12.80
2019-04-16T20:05:15.326Z,12.70
2019-04-16T20:07:43.997Z,12.70
2019-04-16T20:10:11.978Z,12.60
2019-04-16T20:12:40.388Z,12.70
2019-04-16T20:15:09.779Z,12.50
2019-04-16T20:17:38.424Z,12.50
2019-04-16T20:20:07.195Z,12.40
2019-04-16T20:22:35.719Z,12.30
2019-04-16T20:25:04.541Z,12.20
2019-04-16T20:27:32.348Z,12.10
2019-04-16T20:30:00.219Z,12.00
2019-04-16T20:32:31.082Z,12.10
2019-04-16T20:34:59.314Z,12.00
2019-04-16T20:37:27.240Z,12.00
2019-04-16T20:39:55.424Z,12.00
2019-04-16T20:42:23.691Z,12.00
2019-04-16T20:44:51.566Z,11.90
2019-04-16T20:47:19.400Z,11.90
2019-04-16T20:49:49.144Z,11.90
2019-04-16T20:52:17.672Z,11.80
2019-04-16T20:54:49.640Z,11.80
2019-04-16T20:57:17.434Z,11.70
2019-04-16T20:59:51.362Z,11.70
2019-04-16T21:02:19.477Z,11.60
2019-04-16T21:04:47.322Z,11.60
2019-04-16T21:07:15.509Z,11.60
2019-04-16T21:09:43.696Z,11.60
2019-04-16T21:12:13.182Z,11.60
2019-04-16T21:14:41.311Z,11.50
2019-04-16T21:17:09.082Z,11.50
2019-04-16T21:19:47.853Z,11.50
2019-04-16T21:22:17.850Z,11.50
2019-04-16T21:24:46.482Z,11.40
2019-04-16T21:27:14.478Z,11.40
2019-04-16T21:29:42.512Z,11.30
2019-04-16T21:32:21.660Z,11.30
2019-04-16T21:34:51.986Z,11.20
2019-04-16T21:37:36.163Z,11.20
2019-04-16T21:40:04.624Z,11.10
2019-04-16T21:42:35.035Z,10.70
2019-04-16T21:45:02.514Z,11.10
2019-04-16T21:47:30.334Z,11.20
2019-04-16T21:49:58.103Z,11.20
2019-04-16T21:52:26.123Z,11.20
2019-04-16T21:54:53.949Z,11.10
2019-04-16T21:57:21.747Z,11.10
2019-04-16T21:59:50.307Z,11.10
2019-04-16T22:02:24.225Z,11.10
2019-04-16T22:05:48.052Z,11.00
2019-04-16T22:08:13.595Z,11.00
2019-04-16T22:10:41.616Z,10.90
2019-04-16T22:13:09.395Z,10.90
2019-04-16T22:15:37.172Z,10.80
2019-04-16T22:18:08.064Z,10.80
2019-04-16T22:20:35.808Z,10.80
2019-04-16T22:23:04.950Z,10.70
2019-04-16T22:25:32.900Z,10.70
2019-04-16T22:28:00.717Z,10.60
2019-04-16T22:30:28.530Z,10.60
2019-04-16T22:32:56.301Z,10.60
2019-04-16T22:35:24.066Z,10.60
2019-04-16T22:37:51.769Z,10.60
2019-04-16T22:40:37.744Z,10.60
2019-04-16T22:43:30.693Z,10.60
2019-04-16T22:46:06.085Z,10.50
2019-04-16T22:48:33.876Z,10.40
2019-04-16T22:51:01.787Z,10.30
2019-04-16T22:53:29.563Z,10.20
2019-04-16T22:55:58.167Z,10.20
2019-04-16T22:58:45.622Z,10.20
2019-04-16T23:01:14.299Z,10.10
2019-04-16T23:03:42.589Z,10.20
2019-04-16T23:06:10.381Z,10.20
2019-04-16T23:08:40.566Z,10.30
2019-04-16T23:11:07.820Z,10.40
2019-04-16T23:13:35.631Z,10.50
2019-04-16T23:16:03.435Z,10.50
2019-04-16T23:18:31.258Z,10.50
2019-04-16T23:20:59.209Z,10.60
2019-04-16T23:23:27.046Z,10.60
2019-04-16T23:25:59.026Z,10.70
2019-04-16T23:28:24.545Z,10.70
2019-04-16T23:30:52.320Z,10.50
2019-04-16T23:33:20.102Z,10.50
2019-04-16T23:35:47.891Z,10.50
2019-04-16T23:38:15.700Z,10.50
2019-04-16T23:40:43.936Z,10.60
2019-04-16T23:43:34.507Z,10.70
2019-04-16T23:46:40.224Z,10.80
2019-04-16T23:49:32.377Z,10.90
2019-04-16T23:52:10.633Z,10.90
2019-04-16T23:54:44.048Z,11.00
2019-04-16T23:57:26.862Z,11.00
